Time;durP1;ratioP1;P1;durP2;ratioP2;P2;SDS_P1;SDS_P2;PMS_P1;PMS_P2;Temp;Humidity;BMP_temperature;BMP_pressure;BME280_temperature;BME280_humidity;BME280_pressure;Samples;Min_cycle;Max_cycle;Signal;HPM_P1;HPM_P2
2021/11/06 00:02:24;;;;;;;41.70;27.05;;;5.00;99.90;;;;;;4974135;28;20442;-91
2021/11/06 00:04:49;;;;;;;36.88;26.05;;;7.80;99.90;;;;;;4969591;28;20320;-89
2021/11/06 00:07:15;;;;;;;40.87;27.37;;;;;;;;;;4963800;28;20215;-92
2021/11/06 00:09:41;;;;;;;45.35;28.10;;;6.50;99.90;;;;;;4963191;28;20178;-93
2021/11/06 00:12:10;;;;;;;37.07;26.77;;;6.50;99.90;;;;;;4964176;28;20174;-90
2021/11/06 00:14:41;;;;;;;35.67;24.60;;;8.70;99.90;;;;;;4966592;28;20493;-92
2021/11/06 00:17:07;;;;;;;34.40;25.38;;;7.10;99.90;;;;;;4965860;28;20208;-93
2021/11/06 00:20:22;;;;;;;36.03;24.97;;;7.10;99.90;;;;;;4965942;28;20178;-94
2021/11/06 00:22:52;;;;;;;36.42;25.27;;;6.30;99.90;;;;;;4964222;29;20414;-91
2021/11/06 00:25:18;;;;;;;35.85;23.73;;;;;;;;;;4963850;28;20216;-93
2021/11/06 00:27:46;;;;;;;36.10;24.13;;;6.40;99.90;;;;;;4963129;28;20213;-91
2021/11/06 00:30:13;;;;;;;25.92;20.85;;;6.70;99.90;;;;;;4962816;28;20174;-90
2021/11/06 00:32:39;;;;;;;25.60;19.55;;;7.60;99.90;;;;;;4962541;28;20664;-92
2021/11/06 00:35:08;;;;;;;29.75;19.33;;;7.00;99.90;;;;;;4963457;28;20228;-91
2021/11/06 00:37:36;;;;;;;32.33;19.83;;;6.40;99.90;;;;;;4962343;28;20280;-91
2021/11/06 00:40:03;;;;;;;34.42;20.20;;;7.30;99.90;;;;;;4969307;28;20182;-92
2021/11/06 00:42:29;;;;;;;26.05;19.45;;;6.60;99.90;;;;;;4965811;28;20178;-92
2021/11/06 00:44:57;;;;;;;23.00;18.37;;;5.70;99.90;;;;;;4965057;28;20211;-91
2021/11/06 00:47:23;;;;;;;26.10;18.42;;;8.50;99.90;;;;;;4964204;28;20174;-92
2021/11/06 00:49:48;;;;;;;26.63;19.97;;;6.80;99.90;;;;;;4963545;28;20254;-91
2021/11/06 00:52:30;;;;;;;34.77;21.13;;;;;;;;;;4964663;28;20196;-88
2021/11/06 00:55:03;;;;;;;29.73;22.00;;;;;;;;;;4964416;28;20421;-92
2021/11/06 00:57:34;;;;;;;32.60;21.23;;;6.20;99.90;;;;;;4966545;28;20212;-91
2021/11/06 01:00:10;;;;;;;36.67;23.45;;;7.30;99.90;;;;;;4965173;28;20268;-92
2021/11/06 01:02:40;;;;;;;33.20;22.67;;;5.90;99.90;;;;;;4968386;28;20185;-92
2021/11/06 01:05:14;;;;;;;31.95;23.10;;;6.50;99.90;;;;;;4967365;28;20205;-92
2021/11/06 01:07:43;;;;;;;31.52;20.48;;;6.50;99.90;;;;;;4965400;28;20638;-93
2021/11/06 01:10:16;;;;;;;31.08;20.25;;;6.40;99.90;;;;;;4963728;28;20646;-91
2021/11/06 01:12:42;;;;;;;28.75;20.00;;;7.30;99.90;;;;;;4964974;28;20243;-91
2021/11/06 01:15:12;;;;;;;39.95;21.67;;;11.20;99.90;;;;;;4965233;28;20265;-90
2021/11/06 01:17:43;;;;;;;38.45;21.67;;;;;;;;;;4964200;28;20778;-91
2021/11/06 01:20:13;;;;;;;40.63;23.60;;;6.40;99.90;;;;;;4982709;28;20594;-91
2021/11/06 01:22:39;;;;;;;36.05;23.60;;;;;;;;;;4967554;28;20182;-91
2021/11/06 01:25:09;;;;;;;33.72;23.02;;;6.30;99.90;;;;;;4964118;28;20174;-90
2021/11/06 01:27:35;;;;;;;29.40;21.08;;;7.30;99.90;;;;;;4981108;28;20178;-90
2021/11/06 01:30:06;;;;;;;31.02;21.63;;;8.00;99.90;;;;;;4980752;28;20527;-91
2021/11/06 01:32:35;;;;;;;34.25;23.13;;;8.20;99.90;;;;;;4962969;28;20272;-91
2021/11/06 01:35:01;;;;;;;35.03;25.10;;;6.00;99.90;;;;;;4961732;28;20630;-89
2021/11/06 01:37:28;;;;;;;35.97;23.98;;;6.10;99.90;;;;;;4961079;28;20232;-89
2021/11/06 01:39:54;;;;;;;35.00;24.95;;;6.60;99.90;;;;;;4963071;28;20174;-91
2021/11/06 01:42:20;;;;;;;45.50;26.90;;;;;;;;;;4962092;28;20229;-90
2021/11/06 01:44:48;;;;;;;34.47;22.63;;;6.20;99.90;;;;;;4961186;28;20419;-92
2021/11/06 01:47:16;;;;;;;37.08;24.80;;;7.10;99.90;;;;;;4977921;28;20227;-90
2021/11/06 01:49:42;;;;;;;39.10;23.88;;;8.10;99.90;;;;;;4960977;28;20174;-90
2021/11/06 01:52:08;;;;;;;31.50;22.33;;;7.20;99.90;;;;;;4960610;28;20657;-91
2021/11/06 01:54:34;;;;;;;34.22;23.50;;;5.60;99.90;;;;;;4977646;28;20170;-90
2021/11/06 01:57:01;;;;;;;30.70;19.02;;;7.50;99.90;;;;;;4963766;28;20213;-91
2021/11/06 01:59:26;;;;;;;36.97;21.70;;;6.00;99.90;;;;;;4961061;28;20177;-89
2021/11/06 02:02:00;;;;;;;31.33;20.70;;;6.90;99.90;;;;;;4962109;28;20188;-89
2021/11/06 02:04:26;;;;;;;36.58;21.80;;;6.70;99.90;;;;;;4964915;28;20269;-90
2021/11/06 02:06:54;;;;;;;35.03;20.37;;;;;;;;;;4961360;28;20217;-90
2021/11/06 02:09:21;;;;;;;35.72;20.98;;;6.30;99.90;;;;;;4960790;28;20180;-90
2021/11/06 02:11:47;;;;;;;40.88;20.40;;;6.20;99.90;;;;;;4959602;28;20660;-89
2021/11/06 02:14:18;;;;;;;33.83;20.67;;;6.30;99.90;;;;;;4959518;28;20182;-89
2021/11/06 02:16:55;;;;;;;40.00;21.13;;;7.90;99.90;;;;;;4961872;28;20627;-91
2021/11/06 02:19:34;;;;;;;46.35;22.40;;;6.20;99.90;;;;;;4961932;28;20640;-91
2021/11/06 02:22:01;;;;;;;37.15;18.67;;;6.70;99.90;;;;;;4960632;28;20201;-90
2021/11/06 02:24:28;;;;;;;40.38;20.02;;;7.90;99.90;;;;;;4959259;28;20174;-92
2021/11/06 02:27:01;;;;;;;31.45;18.83;;;7.10;99.90;;;;;;4964362;28;20317;-90
2021/11/06 02:29:26;;;;;;;40.42;19.27;;;8.90;99.90;;;;;;4986895;28;20170;-91
2021/11/06 02:32:01;;;;;;;31.17;18.00;;;7.00;99.90;;;;;;4969101;28;20246;-91
2021/11/06 02:34:30;;;;;;;31.90;17.08;;;6.60;99.90;;;;;;4971859;28;20201;-90
2021/11/06 02:36:56;;;;;;;35.00;17.25;;;6.60;99.90;;;;;;4994006;28;20210;-90
2021/11/06 02:39:25;;;;;;;36.13;18.65;;;5.40;99.90;;;;;;4985607;28;20189;-92
2021/11/06 02:42:08;;;;;;;32.67;18.13;;;4.90;99.90;;;;;;4983469;28;20185;-91
2021/11/06 02:44:34;;;;;;;32.80;17.20;;;8.00;99.90;;;;;;4981955;28;20193;-92
2021/11/06 02:47:00;;;;;;;30.15;17.15;;;5.00;99.90;;;;;;4967499;28;20178;-90
2021/11/06 02:49:27;;;;;;;32.60;18.52;;;8.10;99.90;;;;;;4963729;28;20241;-90
2021/11/06 02:51:53;;;;;;;30.52;18.05;;;7.50;99.90;;;;;;4963916;28;20166;-91
2021/11/06 02:54:27;;;;;;;30.48;17.98;;;8.80;99.90;;;;;;4964737;28;20273;-90
2021/11/06 02:57:00;;;;;;;34.25;17.90;;;7.50;99.90;;;;;;4964086;28;20205;-90
2021/11/06 02:59:25;;;;;;;36.03;19.00;;;6.80;99.90;;;;;;4963133;28;20182;-90
2021/11/06 03:01:52;;;;;;;28.23;15.90;;;;;;;;;;4963259;28;20181;-91
2021/11/06 03:04:21;;;;;;;29.23;17.75;;;6.40;99.90;;;;;;4962837;28;20181;-90
2021/11/06 03:06:47;;;;;;;32.08;17.13;;;6.40;99.90;;;;;;4962382;28;20264;-90
2021/11/06 03:09:17;;;;;;;31.03;17.17;;;6.30;99.90;;;;;;4962364;28;20178;-89
2021/11/06 03:11:45;;;;;;;31.52;16.55;;;7.30;99.90;;;;;;4980703;28;20230;-90
2021/11/06 03:14:12;;;;;;;30.00;17.33;;;7.60;99.90;;;;;;4963136;28;20178;-90
2021/11/06 03:16:49;;;;;;;25.88;15.95;;;4.70;99.90;;;;;;4962918;28;20202;-92
2021/11/06 03:19:14;;;;;;;19.15;14.25;;;7.00;99.90;;;;;;4963682;28;20186;-91
2021/11/06 03:21:43;;;;;;;30.00;15.93;;;8.10;99.90;;;;;;4962012;28;20176;-91
2021/11/06 03:24:09;;;;;;;27.00;15.43;;;4.30;99.90;;;;;;4980363;28;20249;-91
2021/11/06 03:26:35;;;;;;;30.97;15.20;;;;;;;;;;4962720;28;20214;-91
2021/11/06 03:29:01;;;;;;;26.83;16.50;;;6.00;99.90;;;;;;4962455;28;20475;-90
2021/11/06 03:31:27;;;;;;;21.30;15.07;;;;;;;;;;4978685;28;20178;-92
2021/11/06 03:33:52;;;;;;;27.83;15.05;;;5.90;99.90;;;;;;4964278;28;20177;-90
2021/11/06 03:36:19;;;;;;;21.43;13.70;;;;;;;;;;4963617;28;20217;-90
2021/11/06 03:38:45;;;;;;;23.48;15.63;;;5.90;99.90;;;;;;4980585;28;20238;-92
2021/11/06 03:41:10;;;;;;;26.27;15.55;;;4.30;99.90;;;;;;4963126;28;20177;-91
2021/11/06 03:43:37;;;;;;;23.60;15.97;;;5.00;99.90;;;;;;4965056;28;20217;-92
2021/11/06 03:46:03;;;;;;;24.85;14.95;;;8.00;99.90;;;;;;4962916;28;20185;-91
2021/11/06 03:48:29;;;;;;;25.02;16.48;;;4.90;99.90;;;;;;4962819;28;20264;-92
2021/11/06 03:50:55;;;;;;;35.35;17.40;;;7.60;99.90;;;;;;4962045;28;20178;-91
2021/11/06 03:53:21;;;;;;;31.40;17.70;;;4.80;99.90;;;;;;4961463;28;20193;-92
2021/11/06 03:55:47;;;;;;;30.37;18.23;;;;;;;;;;4961179;28;20418;-90
2021/11/06 03:58:15;;;;;;;28.73;18.97;;;5.90;99.90;;;;;;4960182;28;20210;-91
2021/11/06 04:00:40;;;;;;;30.08;19.33;;;7.20;99.90;;;;;;4962608;28;20417;-91
2021/11/06 04:03:06;;;;;;;26.63;18.67;;;7.10;99.90;;;;;;4962185;28;20236;-90
2021/11/06 04:05:32;;;;;;;33.13;18.63;;;;;;;;;;4962591;28;20174;-91
2021/11/06 04:07:58;;;;;;;30.80;19.33;;;5.80;99.90;;;;;;4960808;28;20170;-89
2021/11/06 04:10:24;;;;;;;42.20;21.73;;;;;;;;;;4961904;28;20181;-92
2021/11/06 04:12:52;;;;;;;27.63;19.97;;;5.80;99.90;;;;;;4977595;28;20568;-90
2021/11/06 04:15:18;;;;;;;28.33;19.95;;;7.30;99.90;;;;;;4961160;28;20414;-91
2021/11/06 04:17:44;;;;;;;33.80;20.93;;;;;;;;;;4961403;28;20241;-90
2021/11/06 04:20:10;;;;;;;26.42;17.85;;;5.80;99.90;;;;;;4978985;28;20173;-91
2021/11/06 04:22:36;;;;;;;29.13;19.00;;;8.30;99.90;;;;;;4965121;28;20181;-91
2021/11/06 04:25:03;;;;;;;30.00;18.70;;;5.90;99.90;;;;;;4960900;28;20508;-91
2021/11/06 04:27:28;;;;;;;26.83;19.77;;;7.70;99.90;;;;;;4961704;28;20184;-90
2021/11/06 04:29:54;;;;;;;24.90;17.00;;;;;;;;;;4960886;28;20261;-91
2021/11/06 04:32:20;;;;;;;24.80;17.25;;;5.90;99.90;;;;;;4964927;28;20193;-91
2021/11/06 04:34:46;;;;;;;26.43;17.40;;;7.00;99.90;;;;;;4978920;28;20657;-91
2021/11/06 04:37:14;;;;;;;29.50;16.93;;;;;;;;;;4962180;28;20697;-90
2021/11/06 04:39:41;;;;;;;19.30;15.15;;;6.00;99.90;;;;;;4965334;28;20225;-91
2021/11/06 04:42:07;;;;;;;24.67;16.27;;;6.30;99.90;;;;;;4965460;28;20600;-91
2021/11/06 04:44:33;;;;;;;18.67;13.40;;;4.40;99.90;;;;;;4963449;28;20178;-92
2021/11/06 04:46:59;;;;;;;23.50;15.90;;;;;;;;;;4964747;28;20514;-92
2021/11/06 04:49:25;;;;;;;24.60;15.70;;;5.90;99.90;;;;;;4961546;28;20945;-90
2021/11/06 04:51:51;;;;;;;21.27;14.80;;;;;;;;;;4962062;28;20238;-90
2021/11/06 04:54:17;;;;;;;18.73;14.80;;;6.00;99.90;;;;;;4961248;28;20225;-92
2021/11/06 04:56:43;;;;;;;23.20;14.30;;;;;;;;;;4962000;28;20206;-90
2021/11/06 04:59:09;;;;;;;15.98;13.63;;;6.00;99.90;;;;;;4977295;28;20178;-91
2021/11/06 05:01:35;;;;;;;23.87;14.87;;;;;;;;;;4960288;28;20189;-91
2021/11/06 05:04:00;;;;;;;21.98;14.52;;;5.90;99.90;;;;;;4975214;28;20261;-92
2021/11/06 05:06:27;;;;;;;20.87;14.87;;;;;;;;;;4959942;28;20205;-91
2021/11/06 05:08:53;;;;;;;18.17;13.60;;;5.90;99.90;;;;;;4977633;28;20265;-91
2021/11/06 05:11:19;;;;;;;19.90;13.60;;;;;;;;;;4960173;28;20220;-91
2021/11/06 05:13:45;;;;;;;19.45;14.00;;;5.90;99.90;;;;;;4959752;28;20618;-91
2021/11/06 05:16:10;;;;;;;25.03;14.93;;;7.50;99.90;;;;;;4959341;28;20178;-90
2021/11/06 05:18:36;;;;;;;22.60;13.70;;;;;;;;;;4959546;28;20308;-91
2021/11/06 05:21:02;;;;;;;25.60;14.77;;;5.80;99.90;;;;;;4960893;28;20661;-90
2021/11/06 05:23:27;;;;;;;21.87;14.77;;;5.10;99.90;;;;;;4959215;28;20537;-90
2021/11/06 05:25:54;;;;;;;20.60;14.73;;;;;;;;;;4960957;28;20637;-91
2021/11/06 05:28:22;;;;;;;23.95;14.80;;;6.10;99.90;;;;;;4960673;28;20258;-89
2021/11/06 05:30:49;;;;;;;22.50;16.98;;;4.20;99.90;;;;;;4958437;28;20182;-90
2021/11/06 05:33:15;;;;;;;24.83;15.02;;;6.20;99.90;;;;;;4965273;28;20184;-91
2021/11/06 05:35:41;;;;;;;19.60;16.10;;;7.20;99.90;;;;;;4976890;28;20217;-91
2021/11/06 05:38:07;;;;;;;21.63;15.17;;;3.70;99.90;;;;;;4959261;28;20213;-90
2021/11/06 05:40:32;;;;;;;25.10;15.17;;;4.20;99.90;;;;;;4974992;28;20178;-90
2021/11/06 05:42:58;;;;;;;23.97;14.80;;;;;;;;;;4959186;28;20508;-89
2021/11/06 05:45:25;;;;;;;22.27;15.60;;;5.70;99.90;;;;;;4975714;28;20445;-91
2021/11/06 05:47:51;;;;;;;19.77;15.35;;;5.60;99.90;;;;;;4959866;28;20429;-89
2021/11/06 05:50:17;;;;;;;23.97;15.47;;;7.30;99.90;;;;;;4958921;28;20657;-90
2021/11/06 05:52:43;;;;;;;23.53;15.53;;;5.70;99.90;;;;;;4959773;28;20421;-93
2021/11/06 05:55:14;;;;;;;20.77;15.23;;;6.80;99.90;;;;;;4962082;28;20830;-91
2021/11/06 05:57:41;;;;;;;25.17;16.70;;;7.00;99.90;;;;;;4976719;28;20213;-91
2021/11/06 06:00:15;;;;;;;23.25;14.38;;;7.10;99.90;;;;;;4960184;28;20202;-91
2021/11/06 06:02:41;;;;;;;24.48;15.77;;;5.80;99.90;;;;;;4962701;28;20642;-92
2021/11/06 06:05:13;;;;;;;26.30;16.17;;;5.60;99.90;;;;;;4981614;28;20190;-91
2021/11/06 06:07:39;;;;;;;27.52;17.58;;;8.60;99.90;;;;;;4965374;28;20607;-92
2021/11/06 06:10:08;;;;;;;25.10;15.50;;;5.60;99.90;;;;;;4969190;28;20184;-91
2021/11/06 06:12:41;;;;;;;25.73;16.02;;;5.80;99.90;;;;;;4985265;28;20162;-88
2021/11/06 06:15:07;;;;;;;24.63;15.23;;;5.30;99.90;;;;;;4984299;28;20188;-90
2021/11/06 06:17:33;;;;;;;23.40;15.93;;;6.00;99.90;;;;;;4974232;28;20718;-90
2021/11/06 06:20:01;;;;;;;24.83;15.50;;;;;;;;;;4952097;29;20182;-90
2021/11/06 06:22:27;;;;;;;26.67;15.60;;;5.70;99.90;;;;;;4954129;28;20186;-91
2021/11/06 06:24:53;;;;;;;26.00;15.20;;;6.70;99.90;;;;;;4964572;28;20178;-89
2021/11/06 06:27:19;;;;;;;25.60;16.40;;;;;;;;;;4966380;28;20276;-93
2021/11/06 06:29:45;;;;;;;22.23;16.63;;;5.70;99.90;;;;;;4962388;28;20178;-92
2021/11/06 06:32:11;;;;;;;27.00;14.82;;;6.60;99.90;;;;;;4963098;28;20185;-92
2021/11/06 06:34:37;;;;;;;28.73;15.80;;;;;;;;;;4962678;28;20170;-90
2021/11/06 06:37:05;;;;;;;20.20;13.35;;;6.00;99.90;;;;;;4962659;28;20298;-91
2021/11/06 06:39:31;;;;;;;18.67;13.75;;;6.50;99.90;;;;;;4964384;28;20170;-91
2021/11/06 06:41:57;;;;;;;17.03;13.30;;;;;;;;;;4963732;28;20188;-90
2021/11/06 06:44:23;;;;;;;20.07;14.50;;;6.20;99.90;;;;;;4963890;28;20180;-90
2021/11/06 06:46:49;;;;;;;18.13;13.60;;;;;;;;;;4966695;28;20424;-92
2021/11/06 06:49:15;;;;;;;20.92;12.88;;;6.30;99.90;;;;;;4967978;28;20198;-90
2021/11/06 06:51:44;;;;;;;16.80;13.53;;;5.50;99.90;;;;;;4985848;28;20282;-91
2021/11/06 06:54:09;;;;;;;20.45;13.68;;;8.40;99.90;;;;;;4965290;28;20334;-91
2021/11/06 06:56:35;;;;;;;15.93;11.90;;;;;;;;;;4969632;28;20174;-90
2021/11/06 06:59:04;;;;;;;16.95;11.68;;;6.50;99.90;;;;;;4983777;28;20174;-89
2021/11/06 07:01:30;;;;;;;20.08;12.10;;;6.10;99.90;;;;;;4984121;28;20174;-91
2021/11/06 07:03:57;;;;;;;17.53;13.10;;;6.10;99.90;;;;;;4970655;28;20641;-91
2021/11/06 07:06:23;;;;;;;20.98;14.15;;;7.40;99.90;;;;;;4965453;28;20241;-90
2021/11/06 07:08:49;;;;;;;22.35;11.70;;;7.90;99.90;;;;;;4965996;28;20673;-92
2021/11/06 07:11:16;;;;;;;18.53;13.70;;;6.50;99.90;;;;;;4967269;28;20184;-91
2021/11/06 07:13:43;;;;;;;16.35;12.35;;;6.90;99.90;;;;;;4966997;28;20205;-90
2021/11/06 07:16:16;;;;;;;22.00;13.50;;;6.70;99.90;;;;;;4965599;28;20626;-90
2021/11/06 07:18:44;;;;;;;23.52;14.35;;;7.60;99.90;;;;;;4965573;28;20224;-91
2021/11/06 07:21:13;;;;;;;22.38;15.88;;;6.50;99.90;;;;;;4963783;28;20268;-91
2021/11/06 07:23:41;;;;;;;17.25;12.75;;;4.10;99.90;;;;;;4966631;28;20173;-93
2021/11/06 07:26:07;;;;;;;17.38;13.80;;;8.00;99.90;;;;;;4984070;28;20170;-90
2021/11/06 07:28:41;;;;;;;17.60;12.80;;;8.10;99.90;;;;;;4966686;28;20622;-92
2021/11/06 07:31:06;;;;;;;23.88;13.32;;;6.90;99.90;;;;;;4965777;28;20431;-92
2021/11/06 07:33:33;;;;;;;18.40;13.00;;;;;;;;;;4964806;28;20198;-90
2021/11/06 07:36:01;;;;;;;17.77;12.88;;;7.20;99.90;;;;;;4963923;28;20316;-91
2021/11/06 07:38:27;;;;;;;16.45;11.75;;;7.10;99.90;;;;;;4982834;28;20213;-89
2021/11/06 07:40:57;;;;;;;16.90;13.47;;;5.90;99.90;;;;;;4979694;28;20194;-90
2021/11/06 07:43:23;;;;;;;13.05;11.50;;;7.40;99.90;;;;;;4964686;28;20182;-91
2021/11/06 07:45:49;;;;;;;14.07;12.57;;;10.60;99.90;;;;;;4982780;28;20647;-90
2021/11/06 07:48:15;;;;;;;14.63;12.50;;;8.80;99.90;;;;;;4964398;28;20922;-92
2021/11/06 07:50:40;;;;;;;12.97;11.60;;;5.90;99.90;;;;;;4962211;28;20182;-92
2021/11/06 07:53:06;;;;;;;16.23;11.47;;;9.60;99.90;;;;;;4965460;28;20192;-85
2021/11/06 07:55:37;;;;;;;13.23;11.70;;;7.40;99.90;;;;;;4985847;28;20220;-92
2021/11/06 07:58:03;;;;;;;13.07;9.48;;;8.40;99.90;;;;;;4970582;28;20205;-90
2021/11/06 08:00:32;;;;;;;17.50;9.95;;;7.60;99.90;;;;;;4969339;28;20178;-91
2021/11/06 08:02:58;;;;;;;17.10;10.85;;;7.40;99.90;;;;;;4983827;28;20166;-89
2021/11/06 08:05:38;;;;;;;14.13;11.23;;;6.40;99.90;;;;;;4980318;28;20297;-88
2021/11/06 08:08:13;;;;;;;13.77;9.80;;;7.80;99.90;;;;;;4986230;28;20169;-92
2021/11/06 08:10:42;;;;;;;9.90;8.85;;;9.20;99.90;;;;;;4971466;28;20537;-90
2021/11/06 08:13:10;;;;;;;14.38;11.75;;;8.30;99.90;;;;;;4974097;28;20193;-91
2021/11/06 08:15:55;;;;;;;13.35;10.07;;;6.00;99.90;;;;;;4974350;28;20174;-89
2021/11/06 08:18:39;;;;;;;11.15;9.85;;;8.90;99.90;;;;;;4992932;28;20207;-92
2021/11/06 08:21:06;;;;;;;10.02;9.05;;;8.70;99.90;;;;;;4974573;28;20162;-91
2021/11/06 08:23:51;;;;;;;11.50;9.88;;;8.10;99.90;;;;;;4976561;28;20162;-88
2021/11/06 08:26:29;;;;;;;9.80;7.45;;;10.10;99.90;;;;;;4990518;28;20182;-91
2021/11/06 08:29:17;;;;;;;11.10;8.10;;;9.20;99.90;;;;;;4992176;28;20164;-91
2021/11/06 08:31:43;;;;;;;8.77;7.93;;;8.90;99.90;;;;;;4994041;28;20154;-89
2021/11/06 08:34:19;;;;;;;9.32;7.75;;;8.00;99.90;;;;;;5031380;23;20209;-89
2021/11/06 08:36:56;;;;;;;;;;;;;;;;;;;;;
2021/11/06 08:39:54;;;;;;;;;;;;;;;;;;;;;
2021/11/06 08:42:26;;;;;;;9.18;7.40;;;8.10;99.90;;;;;;5054900;23;20248;-90
2021/11/06 08:45:28;;;;;;;11.85;8.35;;;10.50;99.90;;;;;;5157732;23;20233;-90
2021/11/06 08:48:04;;;;;;;8.80;8.00;;;12.20;99.90;;;;;;4996449;28;20193;-91
2021/11/06 08:50:56;;;;;;;9.65;8.65;;;8.70;99.90;;;;;;5104045;23;20211;-90
2021/11/06 08:56:06;;;;;;;7.93;7.20;;;8.60;99.90;;;;;;4481860;23;20216;-90
2021/11/06 08:58:32;;;;;;;10.85;8.15;;;8.70;99.90;;;;;;5010700;28;20205;-90
2021/11/06 09:01:12;;;;;;;11.68;7.43;;;8.70;99.90;;;;;;5014190;28;20173;-90
2021/11/06 09:04:18;;;;;;;8.63;7.72;;;10.80;99.90;;;;;;4974363;28;20187;-91
2021/11/06 09:06:48;;;;;;;11.27;8.15;;;11.80;99.90;;;;;;4971678;28;20174;-89
2021/11/06 09:09:17;;;;;;;7.67;6.93;;;9.80;99.90;;;;;;4942668;28;20159;-88
2021/11/06 09:12:19;;;;;;;11.27;8.70;;;8.10;99.90;;;;;;4969795;29;20890;-91
2021/11/06 09:14:48;;;;;;;7.03;6.40;;;9.00;99.90;;;;;;4956130;28;20449;-92
2021/11/06 09:18:00;;;;;;;7.68;7.00;;;9.80;99.90;;;;;;4991576;28;20210;-89
2021/11/06 09:20:27;;;;;;;7.70;6.07;;;11.30;99.90;;;;;;4988607;28;20178;-88
2021/11/06 09:22:54;;;;;;;6.95;6.45;;;10.90;99.90;;;;;;4993078;28;20254;-90
2021/11/06 09:25:21;;;;;;;7.53;6.82;;;10.80;99.90;;;;;;4984898;28;20190;-89
2021/11/06 09:27:50;;;;;;;9.77;6.95;;;8.60;99.90;;;;;;4984082;28;20197;-88
2021/11/06 09:30:19;;;;;;;7.80;6.90;;;10.70;99.90;;;;;;4972172;28;20213;-90
2021/11/06 09:32:45;;;;;;;7.53;6.90;;;9.40;99.90;;;;;;4972606;28;20437;-87
2021/11/06 09:35:17;;;;;;;10.17;8.47;;;11.30;99.90;;;;;;4999556;28;20209;-89
2021/11/06 09:37:53;;;;;;;8.05;7.45;;;9.80;99.90;;;;;;4992691;28;20251;-89
2021/11/06 09:40:28;;;;;;;6.72;6.25;;;8.00;99.90;;;;;;5020521;28;20168;-89
2021/11/06 09:43:00;;;;;;;7.28;6.68;;;9.50;99.90;;;;;;5030090;28;20157;-89
2021/11/06 09:45:27;;;;;;;9.32;7.90;;;11.80;99.90;;;;;;5009700;28;20197;-90
2021/11/06 09:47:53;;;;;;;8.00;7.20;;;10.70;99.90;;;;;;5013556;28;20200;-90
2021/11/06 09:50:25;;;;;;;7.73;7.13;;;12.40;99.90;;;;;;4997741;28;20201;-90
2021/11/06 09:52:59;;;;;;;9.73;7.17;;;11.10;99.90;;;;;;5077058;23;20479;-89
2021/11/06 09:55:44;;;;;;;7.83;6.70;;;12.00;99.90;;;;;;4979376;28;20440;-92
2021/11/06 09:58:10;;;;;;;6.23;5.93;;;11.60;99.90;;;;;;5002934;28;20468;-83
2021/11/06 10:00:37;;;;;;;6.93;6.20;;;9.80;99.90;;;;;;4993130;28;20431;-86
2021/11/06 10:03:03;;;;;;;6.40;5.90;;;10.80;99.90;;;;;;4993106;28;20424;-85
2021/11/06 10:05:49;;;;;;;6.67;6.20;;;12.20;99.90;;;;;;4993349;28;20407;-85
2021/11/06 10:08:16;;;;;;;7.83;7.23;;;11.30;99.90;;;;;;4993605;28;20244;-86
2021/11/06 10:10:44;;;;;;;7.70;6.90;;;11.70;99.90;;;;;;4992893;28;20403;-87
2021/11/06 10:13:10;;;;;;;7.00;6.40;;;12.00;99.40;;;;;;4992948;28;20416;-86
2021/11/06 10:15:41;;;;;;;8.27;7.67;;;11.00;97.80;;;;;;4993215;28;20696;-88
2021/11/06 10:18:22;;;;;;;6.47;5.97;;;12.10;98.60;;;;;;4985745;28;20500;-86
2021/11/06 10:20:56;;;;;;;6.60;5.97;;;12.40;98.40;;;;;;4990632;28;20468;-86
2021/11/06 10:23:27;;;;;;;7.00;5.90;;;13.00;96.50;;;;;;4974323;28;20817;-84
2021/11/06 10:26:16;;;;;;;6.53;6.03;;;13.40;95.80;;;;;;4970224;28;20480;-86
2021/11/06 10:28:43;;;;;;;7.73;7.03;;;14.20;93.10;;;;;;4988900;28;20439;-86
2021/11/06 10:31:10;;;;;;;7.07;6.47;;;14.50;90.70;;;;;;4993251;28;20861;-84
2021/11/06 10:33:45;;;;;;;5.57;5.27;;;14.40;90.70;;;;;;4980815;28;20449;-87
2021/11/06 10:36:19;;;;;;;6.30;5.90;;;13.80;92.20;;;;;;4973774;28;20510;-85
2021/11/06 10:38:58;;;;;;;6.87;6.47;;;12.70;94.20;;;;;;4973691;28;20465;-85
2021/11/06 10:41:29;;;;;;;6.80;6.40;;;12.50;96.20;;;;;;4958055;28;20552;-83
2021/11/06 10:43:55;;;;;;;6.57;6.07;;;12.60;96.60;;;;;;4975061;28;20409;-86
2021/11/06 10:46:31;;;;;;;7.53;6.73;;;12.80;96.90;;;;;;4957367;28;20451;-86
2021/11/06 10:48:58;;;;;;;6.53;6.07;;;13.20;96.30;;;;;;4959687;28;20420;-85
2021/11/06 10:51:24;;;;;;;6.07;5.77;;;13.60;95.80;;;;;;4977424;28;20488;-85
2021/11/06 10:53:51;;;;;;;7.47;6.97;;;15.40;94.10;;;;;;4976128;28;20956;-85
2021/11/06 10:56:35;;;;;;;6.10;5.70;;;14.30;92.80;;;;;;4960724;28;20181;-85
2021/11/06 10:59:15;;;;;;;5.93;5.43;;;15.30;88.90;;;;;;4976580;28;20428;-85
2021/11/06 11:01:44;;;;;;;5.33;5.03;;;15.90;85.30;;;;;;4962002;28;20913;-87
2021/11/06 11:04:16;;;;;;;5.87;5.57;;;16.30;81.40;;;;;;4978361;28;20425;-86
2021/11/06 11:06:45;;;;;;;6.80;5.97;;;15.90;80.70;;;;;;4962827;28;20422;-88
2021/11/06 11:09:16;;;;;;;6.30;6.00;;;15.60;80.60;;;;;;4961280;28;20414;-87
2021/11/06 11:11:42;;;;;;;5.40;5.10;;;15.20;83.30;;;;;;4977409;28;20416;-87
2021/11/06 11:14:11;;;;;;;5.33;4.93;;;15.20;89.20;;;;;;4959271;28;20426;-87
2021/11/06 11:16:38;;;;;;;5.87;5.37;;;17.40;92.90;;;;;;4977657;28;20515;-88
2021/11/06 11:19:06;;;;;;;5.10;4.90;;;12.30;87.50;;;;;;4977745;28;20757;-87
2021/11/06 11:21:40;;;;;;;4.87;4.67;;;15.30;90.20;;;;;;4959544;28;20428;-89
2021/11/06 11:24:26;;;;;;;4.67;4.37;;;14.40;90.00;;;;;;4960735;28;20425;-87
2021/11/06 11:26:54;;;;;;;4.93;4.57;;;14.10;91.20;;;;;;4976870;28;20517;-85
2021/11/06 11:29:26;;;;;;;5.50;5.10;;;13.10;92.50;;;;;;4981608;28;20420;-86
2021/11/06 11:31:52;;;;;;;7.53;5.30;;;13.20;94.10;;;;;;4959111;28;20413;-86
2021/11/06 11:34:18;;;;;;;6.37;5.80;;;13.00;95.10;;;;;;4977387;28;20422;-87
2021/11/06 11:36:48;;;;;;;5.70;4.63;;;12.90;96.20;;;;;;4976949;28;20417;-87
2021/11/06 11:39:17;;;;;;;5.07;4.80;;;13.10;96.40;;;;;;4976586;28;20174;-86
2021/11/06 11:42:16;;;;;;;5.40;5.03;;;12.60;97.00;;;;;;4976663;28;20910;-88
2021/11/06 11:45:14;;;;;;;4.60;4.40;;;12.50;97.70;;;;;;4956554;28;20410;-86
2021/11/06 11:48:11;;;;;;;5.30;5.00;;;12.40;98.30;;;;;;4976461;28;20414;-88
2021/11/06 11:50:40;;;;;;;4.53;4.13;;;12.80;98.50;;;;;;4958514;28;20422;-86
2021/11/06 11:53:08;;;;;;;4.73;4.30;;;13.00;97.10;;;;;;4976319;28;20489;-86
2021/11/06 11:56:07;;;;;;;;;;;;;;;;;;;;;
2021/11/06 11:59:02;;;;;;;;;;;;;;;;;;;;;
2021/11/06 12:01:41;;;;;;;4.70;4.50;;;16.00;94.70;;;;;;4991091;28;20413;-91
2021/11/06 12:04:19;;;;;;;4.30;4.10;;;17.30;93.50;;;;;;4957695;28;20449;-91
2021/11/06 12:06:48;;;;;;;4.40;4.20;;;15.50;93.20;;;;;;5074525;23;20857;-89
2021/11/06 12:12:44;;;;;;;4.43;4.20;;;16.00;92.50;;;;;;4991495;28;20431;-90
2021/11/06 12:16:23;;;;;;;4.40;4.10;;;16.00;92.10;;;;;;5076658;23;20588;-93
2021/11/06 12:18:57;;;;;;;5.30;4.90;;;14.30;90.40;;;;;;4966124;28;20480;-88
2021/11/06 12:21:25;;;;;;;4.43;4.13;;;18.20;93.40;;;;;;4959872;28;20425;-88
2021/11/06 12:24:06;;;;;;;4.10;3.87;;;18.00;94.70;;;;;;4977076;28;20929;-87
2021/11/06 12:26:51;;;;;;;4.80;4.60;;;12.60;94.30;;;;;;4976192;28;20499;-87
2021/11/06 12:29:19;;;;;;;5.13;4.13;;;17.50;95.80;;;;;;4959038;28;20944;-88
2021/11/06 12:32:35;;;;;;;;;;;;;;;;;;;;;
2021/11/06 12:35:20;;;;;;;;;;;;;;;;;;;;;
2021/11/06 12:38:06;;;;;;;3.77;3.67;;;15.20;95.50;;;;;;4977025;28;20821;-85
2021/11/06 12:41:08;;;;;;;3.10;2.90;;;16.30;92.80;;;;;;4958750;28;20504;-87
2021/11/06 12:43:34;;;;;;;2.97;2.87;;;14.90;91.40;;;;;;4975318;28;20500;-87
2021/11/06 12:46:23;;;;;;;3.47;3.23;;;16.20;95.10;;;;;;4958740;28;20460;-89
2021/11/06 12:49:01;;;;;;;3.40;3.20;;;14.90;92.00;;;;;;4957272;28;20438;-87
2021/11/06 12:51:51;;;;;;;3.30;3.10;;;13.80;92.50;;;;;;4958296;28;20425;-89
2021/11/06 12:54:19;;;;;;;2.50;2.40;;;17.00;94.90;;;;;;4974962;28;20424;-89
2021/11/06 12:56:54;;;;;;;2.13;2.03;;;15.80;96.10;;;;;;4975295;28;20933;-86
2021/11/06 12:59:22;;;;;;;3.03;2.97;;;14.50;93.10;;;;;;4975790;28;20750;-89
2021/11/06 13:01:56;;;;;;;2.20;2.10;;;15.20;93.70;;;;;;4957777;28;20508;-87
2021/11/06 13:04:34;;;;;;;1.67;1.67;;;16.40;95.30;;;;;;4973551;28;20435;-88
2021/11/06 13:07:02;;;;;;;1.57;1.57;;;16.60;93.20;;;;;;4975329;28;20770;-89
2021/11/06 13:09:29;;;;;;;2.10;2.10;;;14.30;91.90;;;;;;4974164;28;20972;-88
2021/11/06 13:12:03;;;;;;;1.90;1.80;;;16.70;91.50;;;;;;4956697;28;20561;-88
2021/11/06 13:14:38;;;;;;;2.30;2.10;;;14.40;90.50;;;;;;4957619;28;21003;-88
2021/11/06 13:17:11;;;;;;;2.20;1.50;;;15.10;91.00;;;;;;4957907;28;20492;-88
2021/11/06 13:19:53;;;;;;;1.43;1.33;;;13.50;93.40;;;;;;4974923;28;20421;-87
2021/11/06 13:22:30;;;;;;;1.70;1.60;;;14.60;91.60;;;;;;4957872;28;20944;-86
2021/11/06 13:25:04;;;;;;;1.10;0.97;;;13.80;91.30;;;;;;4957918;28;20467;-88